createdAt,value
2022-12-09T00:01:10.207Z,5.93
2022-12-09T00:03:37.918Z,5.53
2022-12-09T00:06:09.258Z,5.18
2022-12-09T00:08:36.763Z,5.30
2022-12-09T00:11:04.558Z,5.70
2022-12-09T00:13:31.965Z,5.57
2022-12-09T00:15:59.312Z,6.05
2022-12-09T00:18:26.900Z,5.80
2022-12-09T00:20:54.128Z,6.40
2022-12-09T00:23:21.881Z,6.28
2022-12-09T00:25:49.314Z,5.15
2022-12-09T00:28:16.732Z,4.95
2022-12-09T00:30:43.991Z,5.90
2022-12-09T00:33:11.567Z,6.35
2022-12-09T00:35:38.783Z,5.38
2022-12-09T00:38:06.017Z,5.05
2022-12-09T00:40:33.344Z,6.32
2022-12-09T00:43:00.644Z,5.88
2022-12-09T00:45:27.912Z,5.45
2022-12-09T00:47:55.240Z,7.45
2022-12-09T00:50:22.603Z,5.18
2022-12-09T00:52:49.856Z,5.05
2022-12-09T00:55:17.444Z,4.18
2022-12-09T00:57:44.801Z,4.03
2022-12-09T01:00:12.570Z,4.07
2022-12-09T01:02:40.028Z,3.10
2022-12-09T01:05:07.797Z,3.50
2022-12-09T01:07:37.638Z,3.30
2022-12-09T01:10:06.269Z,4.38
2022-12-09T01:12:34.655Z,4.40
2022-12-09T01:15:01.857Z,4.80
2022-12-09T01:17:29.486Z,6.13
2022-12-09T01:19:56.826Z,5.10
2022-12-09T01:22:24.366Z,4.30
2022-12-09T01:24:51.883Z,5.80
2022-12-09T01:27:19.152Z,5.93
2022-12-09T01:29:46.386Z,6.00
2022-12-09T01:32:13.891Z,5.95
2022-12-09T01:34:41.281Z,4.57
2022-12-09T01:37:11.391Z,4.95
2022-12-09T01:39:38.705Z,4.85
2022-12-09T01:42:06.411Z,5.45
2022-12-09T01:44:35.019Z,5.25
2022-12-09T01:47:03.147Z,4.68
2022-12-09T01:49:30.606Z,4.15
2022-12-09T01:52:06.804Z,5.13
2022-12-09T01:54:34.679Z,4.82
2022-12-09T01:57:02.572Z,3.53
2022-12-09T01:59:30.381Z,3.42
2022-12-09T02:02:00.828Z,1.70
2022-12-09T02:04:29.937Z,2.10
2022-12-09T02:06:58.536Z,1.88
2022-12-09T02:09:25.947Z,2.65
2022-12-09T02:12:11.991Z,2.78
2022-12-09T02:14:45.619Z,2.95
2022-12-09T02:17:12.968Z,3.17
2022-12-09T02:20:15.047Z,4.57
2022-12-09T02:22:56.932Z,4.07
2022-12-09T02:25:33.458Z,3.33
2022-12-09T02:28:09.706Z,4.03
2022-12-09T02:30:50.338Z,4.50
2022-12-09T02:33:32.035Z,3.75
2022-12-09T02:36:04.559Z,3.70
2022-12-09T02:38:33.974Z,3.25
2022-12-09T02:41:03.388Z,3.75
2022-12-09T02:43:46.534Z,3.45
2022-12-09T02:46:18.237Z,4.00
2022-12-09T02:48:49.568Z,4.30
2022-12-09T02:51:18.806Z,3.85
2022-12-09T02:53:47.771Z,3.78
2022-12-09T02:56:16.354Z,4.78
2022-12-09T02:58:43.587Z,4.65
2022-12-09T03:01:21.225Z,4.50
2022-12-09T03:03:49.010Z,4.13
2022-12-09T03:06:18.505Z,4.40
2022-12-09T03:08:48.990Z,3.35
2022-12-09T03:11:17.313Z,3.72
2022-12-09T03:13:53.492Z,3.60
2022-12-09T03:16:23.524Z,5.50
2022-12-09T03:18:53.539Z,4.20
2022-12-09T03:21:22.556Z,5.18
2022-12-09T03:23:51.449Z,5.05
2022-12-09T03:26:19.506Z,4.85
2022-12-09T03:28:50.128Z,4.50
2022-12-09T03:31:19.991Z,5.00
2022-12-09T03:33:48.745Z,4.57
2022-12-09T03:36:17.544Z,5.32
2022-12-09T03:38:46.793Z,4.35
2022-12-09T03:41:30.590Z,5.70
2022-12-09T03:44:12.519Z,4.80
2022-12-09T03:46:40.174Z,4.20
2022-12-09T03:49:07.531Z,4.93
2022-12-09T03:51:34.750Z,4.38
2022-12-09T03:54:06.118Z,5.82
2022-12-09T03:56:35.406Z,5.20
2022-12-09T03:59:04.855Z,4.75
2022-12-09T04:01:32.859Z,5.10
2022-12-09T04:04:00.858Z,4.75
2022-12-09T04:06:28.357Z,5.03
2022-12-09T04:09:00.750Z,6.07
2022-12-09T04:11:29.627Z,4.80
2022-12-09T04:13:57.034Z,6.18
2022-12-09T04:16:24.459Z,5.43
2022-12-09T04:18:51.935Z,6.30
2022-12-09T04:21:19.385Z,4.97
2022-12-09T04:23:46.887Z,6.32
2022-12-09T04:26:15.688Z,5.82
2022-12-09T04:28:43.331Z,4.70
2022-12-09T04:31:11.897Z,4.90
2022-12-09T04:33:39.290Z,4.88
2022-12-09T04:36:10.520Z,5.97
2022-12-09T04:38:37.944Z,5.03
2022-12-09T04:41:05.681Z,5.55
2022-12-09T04:43:33.060Z,4.85
2022-12-09T04:46:01.548Z,5.28
2022-12-09T04:48:29.343Z,6.45
2022-12-09T04:50:57.177Z,5.53
2022-12-09T04:53:24.924Z,5.22
2022-12-09T04:55:59.931Z,5.90
2022-12-09T04:58:27.694Z,5.45
2022-12-09T05:00:55.361Z,7.00
2022-12-09T05:03:22.796Z,5.03
2022-12-09T05:05:51.283Z,6.32
2022-12-09T05:08:18.742Z,6.47
2022-12-09T05:10:47.484Z,6.53
2022-12-09T05:13:15.156Z,5.32
2022-12-09T05:15:42.852Z,6.00
2022-12-09T05:18:10.391Z,6.40
2022-12-09T05:20:40.095Z,5.50
2022-12-09T05:23:09.475Z,6.25
2022-12-09T05:25:37.917Z,5.97
2022-12-09T05:28:05.322Z,6.72
2022-12-09T05:30:33.021Z,5.53
2022-12-09T05:33:00.649Z,6.00
2022-12-09T05:35:28.408Z,5.63
2022-12-09T05:37:56.048Z,5.10
2022-12-09T05:40:24.173Z,6.53
2022-12-09T05:42:51.848Z,5.50
2022-12-09T05:45:19.194Z,5.70
2022-12-09T05:47:46.957Z,6.45
2022-12-09T05:50:15.003Z,6.28
2022-12-09T05:52:42.721Z,6.47
2022-12-09T05:55:10.388Z,6.97
2022-12-09T05:57:38.608Z,5.93
2022-12-09T06:00:08.217Z,5.95
2022-12-09T06:02:36.065Z,6.63
2022-12-09T06:05:04.138Z,6.15
2022-12-09T06:07:32.171Z,6.28
2022-12-09T06:09:59.724Z,5.90
2022-12-09T06:12:28.001Z,6.28
2022-12-09T06:14:55.532Z,6.28
2022-12-09T06:17:23.006Z,5.72
2022-12-09T06:19:50.579Z,5.97
2022-12-09T06:22:18.110Z,6.68
2022-12-09T06:24:46.129Z,5.90
2022-12-09T06:27:13.596Z,5.63
2022-12-09T06:29:41.257Z,6.35
2022-12-09T06:32:08.673Z,6.47
2022-12-09T06:34:36.517Z,5.82
2022-12-09T06:37:04.661Z,5.88
2022-12-09T06:39:32.035Z,6.03
2022-12-09T06:42:00.001Z,6.00
2022-12-09T06:44:27.484Z,7.50
2022-12-09T06:46:55.304Z,5.97
2022-12-09T06:49:23.211Z,7.10
2022-12-09T06:51:51.252Z,6.28
2022-12-09T06:54:18.713Z,6.18
2022-12-09T06:56:46.517Z,7.03
2022-12-09T06:59:14.267Z,5.97
2022-12-09T07:01:41.868Z,5.70
2022-12-09T07:04:11.480Z,5.68
2022-12-09T07:06:40.383Z,6.13
2022-12-09T07:09:10.540Z,6.97
2022-12-09T07:11:38.493Z,5.00
2022-12-09T07:14:06.080Z,7.25
2022-12-09T07:16:33.680Z,7.80
2022-12-09T07:19:01.900Z,6.85
2022-12-09T07:21:29.741Z,6.75
2022-12-09T07:24:00.063Z,5.15
2022-12-09T07:26:27.985Z,5.75
2022-12-09T07:28:55.599Z,6.03
2022-12-09T07:31:25.310Z,6.05
2022-12-09T07:33:54.423Z,3.55
2022-12-09T07:36:22.461Z,4.30
2022-12-09T07:38:50.543Z,4.00
2022-12-09T07:41:18.628Z,3.17
2022-12-09T07:43:46.935Z,3.97
2022-12-09T07:46:18.195Z,3.67
2022-12-09T07:48:45.893Z,5.20
2022-12-09T07:51:13.386Z,5.45
2022-12-09T07:53:41.286Z,4.75
2022-12-09T07:56:11.771Z,5.00
2022-12-09T07:58:39.724Z,4.07
2022-12-09T08:01:12.182Z,4.95
2022-12-09T08:03:43.521Z,5.57
2022-12-09T08:06:18.506Z,5.45
2022-12-09T08:08:46.601Z,4.32
2022-12-09T08:11:19.101Z,5.47
2022-12-09T08:13:47.533Z,4.95
2022-12-09T08:16:16.049Z,4.30
2022-12-09T08:18:43.991Z,4.15
2022-12-09T08:21:19.879Z,4.50
2022-12-09T08:23:48.145Z,4.57
2022-12-09T08:26:16.150Z,5.95
2022-12-09T08:28:43.636Z,4.40
2022-12-09T08:31:12.499Z,4.95
2022-12-09T08:33:40.727Z,4.10
2022-12-09T08:36:18.644Z,4.43
2022-12-09T08:38:46.327Z,4.88
2022-12-09T08:41:15.079Z,4.15
2022-12-09T08:43:42.906Z,4.57
2022-12-09T08:46:11.190Z,3.40
2022-12-09T08:48:39.852Z,3.22
2022-12-09T08:51:08.038Z,3.28
2022-12-09T08:53:35.757Z,3.20
2022-12-09T08:56:13.812Z,3.10
2022-12-09T08:58:41.570Z,3.03
2022-12-09T09:01:15.188Z,2.40
2022-12-09T09:03:43.137Z,2.47
2022-12-09T09:06:12.184Z,2.47
2022-12-09T09:08:40.970Z,2.67
2022-12-09T09:11:12.278Z,2.45
2022-12-09T09:13:40.938Z,2.08
2022-12-09T09:16:13.150Z,1.58
2022-12-09T09:18:41.181Z,1.92
2022-12-09T09:21:09.778Z,1.92
2022-12-09T09:23:38.141Z,1.67
2022-12-09T09:26:06.348Z,1.50
2022-12-09T09:28:34.740Z,1.35
2022-12-09T09:31:03.379Z,1.60
2022-12-09T09:33:30.839Z,1.58
2022-12-09T09:35:59.295Z,1.20
2022-12-09T09:38:28.292Z,1.33
2022-12-09T09:40:56.237Z,1.63
2022-12-09T09:43:26.521Z,1.23
2022-12-09T09:45:55.540Z,1.10
2022-12-09T09:48:26.035Z,1.20
2022-12-09T09:51:12.436Z,1.55
2022-12-09T09:53:40.518Z,1.65
2022-12-09T09:56:26.887Z,1.55
2022-12-09T09:59:00.414Z,0.88
2022-12-09T10:01:30.598Z,1.50
2022-12-09T10:03:58.876Z,1.67
2022-12-09T10:06:29.971Z,1.42
2022-12-09T10:09:00.470Z,1.45
2022-12-09T10:11:31.164Z,1.00
2022-12-09T10:13:59.536Z,0.88
2022-12-09T10:16:27.313Z,1.20
2022-12-09T10:19:02.659Z,1.20
2022-12-09T10:21:38.074Z,1.02
2022-12-09T10:24:18.316Z,1.98
2022-12-09T10:26:50.310Z,1.30
2022-12-09T10:29:40.852Z,1.20
2022-12-09T10:32:14.678Z,1.63
2022-12-09T10:34:42.547Z,0.90
2022-12-09T10:37:29.169Z,2.55
2022-12-09T10:40:03.189Z,1.40
2022-12-09T10:42:51.185Z,0.90
2022-12-09T10:45:18.951Z,1.60
2022-12-09T10:47:51.564Z,2.20
2022-12-09T10:50:32.562Z,1.42
2022-12-09T10:53:06.098Z,1.13
2022-12-09T10:55:40.448Z,1.45
2022-12-09T10:58:22.460Z,1.10
2022-12-09T11:01:00.376Z,1.10
2022-12-09T11:03:30.738Z,1.50
2022-12-09T11:06:17.360Z,1.48
2022-12-09T11:08:51.557Z,1.60
2022-12-09T11:11:19.164Z,1.90
2022-12-09T11:13:47.557Z,1.90
2022-12-09T11:16:15.112Z,1.80
2022-12-09T11:18:44.523Z,1.48
2022-12-09T11:21:32.561Z,1.85
2022-12-09T11:24:03.647Z,1.77
2022-12-09T11:26:39.299Z,1.52
2022-12-09T11:29:14.303Z,1.50
2022-12-09T11:31:41.986Z,1.35
2022-12-09T11:34:16.422Z,1.80
2022-12-09T11:36:47.596Z,1.50
2022-12-09T11:39:14.830Z,1.30
2022-12-09T11:42:04.863Z,1.30
2022-12-09T11:44:33.147Z,1.83
2022-12-09T11:47:06.413Z,1.40
2022-12-09T11:49:36.618Z,1.58
2022-12-09T11:52:18.836Z,2.20
2022-12-09T11:54:53.948Z,3.10
2022-12-09T11:57:41.381Z,3.53
2022-12-09T12:00:27.801Z,2.38
2022-12-09T12:03:06.380Z,2.03
2022-12-09T12:05:37.265Z,2.20
2022-12-09T12:08:13.937Z,2.88
2022-12-09T12:10:43.557Z,2.20
2022-12-09T12:13:10.792Z,1.80
2022-12-09T12:15:53.440Z,1.80
2022-12-09T12:18:21.865Z,1.60
2022-12-09T12:21:05.098Z,1.52
2022-12-09T12:23:32.284Z,1.80
2022-12-09T12:26:05.852Z,2.47
2022-12-09T12:28:57.291Z,2.50
2022-12-09T12:31:29.450Z,2.25
2022-12-09T12:34:27.978Z,2.53
2022-12-09T12:37:04.221Z,2.40
2022-12-09T12:39:44.000Z,3.70
2022-12-09T12:42:29.501Z,4.72
2022-12-09T12:45:18.561Z,2.60
2022-12-09T12:47:49.690Z,2.67
2022-12-09T12:50:35.045Z,3.13
2022-12-09T12:53:08.460Z,9.77
2022-12-09T12:56:08.097Z,4.50
2022-12-09T12:58:35.294Z,5.97
2022-12-09T13:01:13.967Z,5.32
2022-12-09T13:03:47.393Z,5.25
2022-12-09T13:06:16.971Z,5.18
2022-12-09T13:08:50.534Z,6.85
2022-12-09T13:11:23.192Z,6.43
2022-12-09T13:13:54.643Z,6.32
2022-12-09T13:16:40.025Z,5.85
2022-12-09T13:19:13.808Z,6.50
2022-12-09T13:21:41.440Z,7.15
2022-12-09T13:24:22.035Z,5.22
2022-12-09T13:26:55.397Z,9.70
2022-12-09T13:29:38.359Z,7.45
2022-12-09T13:32:14.599Z,4.93
2022-12-09T13:34:43.093Z,5.47
2022-12-09T13:37:28.794Z,5.20
2022-12-09T13:42:46.536Z,7.40
2022-12-09T13:45:19.498Z,5.68
2022-12-09T13:47:47.546Z,5.90
2022-12-09T13:50:26.184Z,5.97
2022-12-09T13:52:57.606Z,5.32
2022-12-09T13:55:24.872Z,4.22
2022-12-09T13:57:57.994Z,4.97
2022-12-09T14:00:25.290Z,4.93
2022-12-09T14:03:00.230Z,4.80
2022-12-09T14:05:29.715Z,4.47
2022-12-09T14:07:57.303Z,5.75
2022-12-09T14:10:38.424Z,9.93
2022-12-09T14:13:05.670Z,5.68
2022-12-09T14:15:32.890Z,6.07
2022-12-09T14:18:02.980Z,5.53
2022-12-09T14:20:31.632Z,5.85
2022-12-09T14:23:08.152Z,4.70
2022-12-09T14:25:35.354Z,5.53
2022-12-09T14:28:24.366Z,5.28
2022-12-09T14:30:53.360Z,4.75
2022-12-09T14:33:39.999Z,5.07
2022-12-09T14:36:16.531Z,4.40
2022-12-09T14:39:15.641Z,4.70
2022-12-09T14:41:39.970Z,4.40
2022-12-09T14:44:07.219Z,4.40
2022-12-09T14:46:39.543Z,5.60
2022-12-09T14:49:12.958Z,4.95
2022-12-09T14:51:45.153Z,5.38
2022-12-09T14:54:30.188Z,5.55
2022-12-09T14:56:58.626Z,5.65
2022-12-09T14:59:26.799Z,7.13
2022-12-09T15:01:58.717Z,6.13
2022-12-09T15:04:36.497Z,5.50
2022-12-09T15:07:12.696Z,6.03
2022-12-09T15:09:48.898Z,5.97
2022-12-09T15:12:16.146Z,5.65
2022-12-09T15:14:46.818Z,8.23
2022-12-09T15:17:28.037Z,6.60
2022-12-09T15:20:12.012Z,7.32
2022-12-09T15:22:39.285Z,7.50
2022-12-09T15:25:07.915Z,6.70
2022-12-09T15:27:35.154Z,9.57
2022-12-09T15:30:15.353Z,9.82
2022-12-09T15:32:42.550Z,8.38
2022-12-09T15:35:18.012Z,7.80
2022-12-09T15:37:45.744Z,6.47
2022-12-09T15:40:16.448Z,5.55
2022-12-09T15:42:44.906Z,5.90
2022-12-09T15:45:13.731Z,5.97
2022-12-09T15:47:47.360Z,6.07
2022-12-09T15:50:29.852Z,6.50
2022-12-09T15:52:57.215Z,6.20
2022-12-09T15:55:30.573Z,5.95
2022-12-09T15:57:58.336Z,7.97
2022-12-09T16:00:25.680Z,10.63
2022-12-09T16:02:53.403Z,6.75
2022-12-09T16:05:22.998Z,6.95
2022-12-09T16:07:58.895Z,7.53
2022-12-09T16:10:27.209Z,7.72
2022-12-09T16:13:11.312Z,7.30
2022-12-09T16:15:53.607Z,7.47
2022-12-09T16:18:20.881Z,6.70
2022-12-09T16:21:17.392Z,5.45
2022-12-09T16:23:45.843Z,5.53
2022-12-09T16:26:18.936Z,4.57
2022-12-09T16:28:54.051Z,4.15
2022-12-09T16:31:22.665Z,4.53
2022-12-09T16:33:50.588Z,4.88
2022-12-09T16:36:29.112Z,3.75
2022-12-09T16:39:13.878Z,3.92
2022-12-09T16:41:53.478Z,5.68
2022-12-09T16:44:22.418Z,5.88
2022-12-09T16:46:49.809Z,5.93
2022-12-09T16:49:17.116Z,6.10
2022-12-09T16:51:44.472Z,5.40
2022-12-09T16:54:20.006Z,5.85
2022-12-09T16:56:48.311Z,6.75
2022-12-09T16:59:15.543Z,5.65
2022-12-09T17:01:43.185Z,5.45
2022-12-09T17:04:15.623Z,5.13
2022-12-09T17:06:43.252Z,6.07
2022-12-09T17:09:11.969Z,5.50
2022-12-09T17:11:42.793Z,5.28
2022-12-09T17:14:12.863Z,4.80
2022-12-09T17:16:40.187Z,7.43
2022-12-09T17:19:08.207Z,9.38
2022-12-09T17:21:35.456Z,6.40
2022-12-09T17:24:02.756Z,6.22
2022-12-09T17:26:29.962Z,5.53
2022-12-09T17:29:01.494Z,5.50
2022-12-09T17:31:29.453Z,4.80
2022-12-09T17:33:57.003Z,5.38
2022-12-09T17:36:24.234Z,4.97
2022-12-09T17:38:51.431Z,5.63
2022-12-09T17:41:23.523Z,5.25
2022-12-09T17:43:50.962Z,5.57
2022-12-09T17:46:18.339Z,4.65
2022-12-09T17:48:45.564Z,5.22
2022-12-09T17:51:14.144Z,4.90
2022-12-09T17:53:41.824Z,4.93
2022-12-09T17:56:09.659Z,5.00
2022-12-09T17:58:37.213Z,6.00
2022-12-09T18:01:04.713Z,6.28
2022-12-09T18:03:57.257Z,5.90
2022-12-09T18:06:19.218Z,6.43
2022-12-09T18:08:46.445Z,5.47
2022-12-09T18:11:13.723Z,6.57
2022-12-09T18:13:40.946Z,7.50
2022-12-09T18:16:09.742Z,6.80
2022-12-09T18:18:37.374Z,9.50
2022-12-09T18:21:06.548Z,7.93
2022-12-09T18:23:36.951Z,7.88
2022-12-09T18:26:08.284Z,8.23
2022-12-09T18:28:35.582Z,8.40
2022-12-09T18:31:06.836Z,9.10
2022-12-09T18:33:34.487Z,10.63
2022-12-09T18:36:05.826Z,8.23
2022-12-09T18:38:33.021Z,8.30
2022-12-09T18:41:03.145Z,10.15
2022-12-09T18:43:31.901Z,8.98
2022-12-09T18:46:03.188Z,10.40
2022-12-09T18:48:30.977Z,9.13
2022-12-09T18:50:58.463Z,10.07
2022-12-09T18:53:25.867Z,7.97
2022-12-09T18:55:53.180Z,10.35
2022-12-09T18:58:31.582Z,8.90
2022-12-09T19:01:15.039Z,9.20
2022-12-09T19:03:42.343Z,7.45
2022-12-09T19:06:26.451Z,9.90
2022-12-09T19:08:56.293Z,7.30
2022-12-09T19:11:24.480Z,8.02
2022-12-09T19:13:51.784Z,8.50
2022-12-09T19:16:19.439Z,11.30
2022-12-09T19:18:46.784Z,8.00
2022-12-09T19:21:15.351Z,9.45
2022-12-09T19:23:43.497Z,8.80
2022-12-09T19:26:13.526Z,8.82
2022-12-09T19:28:41.286Z,10.13
2022-12-09T19:31:19.295Z,10.75
2022-12-09T19:33:46.899Z,10.65
2022-12-09T19:36:14.560Z,9.95
2022-12-09T19:38:42.490Z,9.30
2022-12-09T19:41:09.761Z,9.98
2022-12-09T19:43:37.432Z,10.88
2022-12-09T19:46:05.967Z,9.35
2022-12-09T19:48:35.466Z,10.70
2022-12-09T19:51:03.785Z,9.60
2022-12-09T19:53:31.272Z,9.82
2022-12-09T19:56:00.760Z,12.52
2022-12-09T19:58:28.273Z,13.45
2022-12-09T20:00:55.519Z,13.68
2022-12-09T20:03:22.791Z,13.07
2022-12-09T20:05:54.747Z,12.60
2022-12-09T20:08:23.265Z,13.00
2022-12-09T20:10:50.625Z,10.15
2022-12-09T20:13:17.964Z,9.95
2022-12-09T20:15:45.184Z,10.05
2022-12-09T20:18:14.444Z,10.10
2022-12-09T20:20:45.717Z,9.30
2022-12-09T20:23:16.066Z,10.27
2022-12-09T20:25:43.283Z,10.05
2022-12-09T20:28:10.548Z,10.95
2022-12-09T20:30:37.757Z,9.15
2022-12-09T20:33:05.049Z,9.50
2022-12-09T20:35:32.325Z,8.95
2022-12-09T20:37:59.542Z,8.68
2022-12-09T20:40:26.782Z,8.90
2022-12-09T20:42:54.000Z,9.40
2022-12-09T20:45:21.185Z,8.95
2022-12-09T20:47:48.489Z,9.63
2022-12-09T20:50:15.687Z,8.30
2022-12-09T20:52:42.927Z,8.30
2022-12-09T20:55:10.220Z,8.85
2022-12-09T20:57:37.454Z,9.70
2022-12-09T21:00:05.176Z,8.05
2022-12-09T21:02:39.504Z,10.50
2022-12-09T21:05:08.443Z,9.35
2022-12-09T21:07:35.664Z,10.90
2022-12-09T21:10:02.889Z,9.48
2022-12-09T21:12:30.650Z,8.68
2022-12-09T21:14:57.970Z,10.13
2022-12-09T21:17:25.200Z,9.18
2022-12-09T21:19:52.393Z,9.50
2022-12-09T21:22:19.626Z,10.52
2022-12-09T21:24:47.550Z,10.02
2022-12-09T21:27:14.867Z,11.25
2022-12-09T21:29:42.140Z,10.38
2022-12-09T21:32:09.395Z,10.23
2022-12-09T21:34:36.703Z,10.10
2022-12-09T21:37:04.042Z,10.55
2022-12-09T21:39:31.318Z,11.15
2022-12-09T21:41:58.505Z,11.10
2022-12-09T21:44:27.209Z,10.05
2022-12-09T21:46:54.611Z,9.73
2022-12-09T21:49:21.859Z,11.02
2022-12-09T21:51:49.061Z,10.95
2022-12-09T21:54:16.379Z,11.18
2022-12-09T21:56:43.680Z,11.68
2022-12-09T21:59:11.672Z,11.80
2022-12-09T22:01:40.290Z,12.60
2022-12-09T22:04:08.856Z,10.15
2022-12-09T22:06:36.124Z,11.38
2022-12-09T22:09:03.881Z,11.25
2022-12-09T22:11:32.106Z,11.45
2022-12-09T22:14:00.298Z,10.40
2022-12-09T22:16:29.461Z,11.63
2022-12-09T22:18:57.972Z,11.07
2022-12-09T22:21:27.561Z,10.60
2022-12-09T22:23:59.671Z,12.57
2022-12-09T22:26:27.193Z,12.95
2022-12-09T22:28:54.882Z,10.27
2022-12-09T22:31:26.530Z,10.05
2022-12-09T22:33:54.894Z,11.70
2022-12-09T22:36:22.513Z,13.68
2022-12-09T22:38:49.814Z,13.50
2022-12-09T22:41:21.995Z,14.95
2022-12-09T22:43:50.045Z,13.68
2022-12-09T22:46:19.147Z,15.02
2022-12-09T22:48:46.740Z,11.65
2022-12-09T22:51:16.247Z,11.27
2022-12-09T22:53:43.669Z,11.13
2022-12-09T22:56:11.531Z,11.95
2022-12-09T22:58:39.085Z,10.55
2022-12-09T23:01:13.312Z,11.48
2022-12-09T23:03:40.655Z,10.52
2022-12-09T23:06:08.348Z,10.38
2022-12-09T23:08:36.164Z,9.43
2022-12-09T23:11:04.398Z,11.30
2022-12-09T23:13:35.000Z,10.15
2022-12-09T23:16:09.219Z,11.52
2022-12-09T23:18:36.787Z,10.55
2022-12-09T23:21:05.117Z,10.30
2022-12-09T23:23:32.408Z,10.80
2022-12-09T23:26:06.954Z,11.07
2022-12-09T23:28:37.455Z,10.65
2022-12-09T23:31:05.579Z,12.02
2022-12-09T23:33:34.648Z,11.02
2022-12-09T23:36:06.556Z,10.82
2022-12-09T23:38:33.977Z,11.27
2022-12-09T23:41:01.298Z,11.48
2022-12-09T23:43:31.416Z,9.52
2022-12-09T23:46:02.405Z,10.38
2022-12-09T23:48:29.944Z,12.25
2022-12-09T23:50:57.896Z,11.68
2022-12-09T23:53:25.227Z,10.65
2022-12-09T23:55:52.462Z,12.05
2022-12-09T23:58:19.700Z,11.30
